Time;durP1;ratioP1;P1;durP2;ratioP2;P2;SDS_P1;SDS_P2;PMS_P1;PMS_P2;Temp;Humidity;BMP_temperature;BMP_pressure;BME280_temperature;BME280_humidity;BME280_pressure;Samples;Min_cycle;Max_cycle;Signal;HPM_P1;HPM_P2
2022/11/02 00:00:51;;;;;;;4.10;2.10;;;9.00;99.90;;;;;;5111194;28;20916;-77
2022/11/02 00:03:17;;;;;;;2.23;1.33;;;9.00;99.90;;;;;;5076058;28;20473;-77
2022/11/02 00:05:43;;;;;;;6.30;1.87;;;9.20;99.90;;;;;;5092935;28;20416;-77
2022/11/02 00:08:09;;;;;;;6.03;2.17;;;9.40;99.90;;;;;;5092681;28;20305;-77
2022/11/02 00:10:34;;;;;;;8.10;2.10;;;9.60;99.90;;;;;;5075884;28;20183;-76
2022/11/02 00:13:00;;;;;;;2.50;2.00;;;9.70;99.90;;;;;;5093204;28;20417;-77
2022/11/02 00:15:29;;;;;;;5.87;2.00;;;9.70;99.90;;;;;;5076329;28;20557;-76
2022/11/02 00:18:00;;;;;;;2.70;2.00;;;10.00;99.90;;;;;;5093270;28;20204;-76
2022/11/02 00:20:26;;;;;;;4.23;2.33;;;10.20;99.90;;;;;;5111615;28;20409;-77
2022/11/02 00:22:55;;;;;;;6.03;1.90;;;10.30;99.90;;;;;;5103878;28;20463;-75
2022/11/02 00:25:23;;;;;;;2.77;1.80;;;10.60;99.90;;;;;;5116887;28;20416;-76
2022/11/02 00:27:49;;;;;;;2.50;1.63;;;10.60;99.90;;;;;;5093992;28;20435;-76
2022/11/02 00:30:15;;;;;;;2.07;1.67;;;10.60;99.90;;;;;;5113026;28;20401;-76
2022/11/02 00:32:41;;;;;;;5.80;1.80;;;10.70;99.90;;;;;;5125280;28;20429;-77
2022/11/02 00:35:07;;;;;;;5.53;2.00;;;10.70;99.90;;;;;;5130380;28;20245;-76
2022/11/02 00:37:32;;;;;;;6.43;2.20;;;10.80;99.90;;;;;;5096247;28;20247;-76
2022/11/02 00:39:58;;;;;;;3.23;1.40;;;10.90;99.90;;;;;;5112053;28;20414;-76
2022/11/02 00:42:23;;;;;;;5.67;1.67;;;11.10;99.90;;;;;;5076632;28;20186;-76
2022/11/02 00:44:49;;;;;;;6.93;1.60;;;11.20;99.90;;;;;;5076369;28;20710;-76
2022/11/02 00:47:15;;;;;;;6.33;1.70;;;11.40;99.90;;;;;;5111937;28;20201;-76
2022/11/02 00:49:40;;;;;;;3.50;1.30;;;11.30;99.90;;;;;;5076185;28;20887;-77
2022/11/02 00:52:06;;;;;;;4.27;1.60;;;11.40;99.90;;;;;;5092269;28;20237;-76
2022/11/02 00:54:31;;;;;;;8.03;1.97;;;11.40;99.90;;;;;;5091910;28;20278;-76
2022/11/02 00:56:57;;;;;;;3.33;1.53;;;11.40;99.90;;;;;;5091601;28;20209;-77
2022/11/02 00:59:23;;;;;;;5.73;1.80;;;11.50;99.90;;;;;;5110108;28;20662;-77
2022/11/02 01:01:48;;;;;;;10.17;1.83;;;11.50;99.90;;;;;;5091673;28;20207;-77
2022/11/02 01:04:16;;;;;;;7.50;1.60;;;11.50;99.90;;;;;;5074995;28;20668;-76
2022/11/02 01:06:42;;;;;;;2.60;1.13;;;11.60;99.90;;;;;;5110446;28;20272;-77
2022/11/02 01:09:09;;;;;;;4.33;1.40;;;11.70;99.90;;;;;;5092761;28;20417;-77
2022/11/02 01:11:35;;;;;;;8.90;1.73;;;11.60;99.90;;;;;;5093089;28;20437;-77
2022/11/02 01:14:01;;;;;;;9.20;1.87;;;11.80;99.90;;;;;;5093006;28;20502;-77
2022/11/02 01:16:27;;;;;;;5.87;1.17;;;11.80;99.90;;;;;;5075773;28;20188;-76
2022/11/02 01:18:54;;;;;;;4.03;1.40;;;11.80;99.90;;;;;;5109639;28;20191;-76
2022/11/02 01:21:20;;;;;;;3.83;1.53;;;11.80;99.90;;;;;;5109674;28;20418;-76
2022/11/02 01:23:46;;;;;;;4.80;1.60;;;11.80;99.90;;;;;;5074631;28;20896;-76
2022/11/02 01:26:11;;;;;;;7.40;1.50;;;11.80;99.90;;;;;;5074533;28;20522;-76
2022/11/02 01:28:38;;;;;;;5.13;1.30;;;11.80;99.90;;;;;;5074525;28;20209;-76
2022/11/02 01:31:04;;;;;;;4.87;1.60;;;11.70;99.90;;;;;;5109726;28;20173;-76
2022/11/02 01:33:31;;;;;;;7.13;1.60;;;11.60;99.90;;;;;;5091268;28;20423;-76
2022/11/02 01:35:56;;;;;;;12.30;1.70;;;11.60;99.90;;;;;;5109618;28;20447;-76
2022/11/02 01:38:22;;;;;;;6.07;1.40;;;11.60;99.90;;;;;;5091131;28;20476;-76
2022/11/02 01:40:48;;;;;;;7.93;2.00;;;11.70;99.90;;;;;;5091362;28;20271;-76
2022/11/02 01:43:27;;;;;;;3.63;1.77;;;11.70;99.90;;;;;;5109492;28;20464;-76
2022/11/02 01:46:05;;;;;;;3.87;1.07;;;11.80;99.90;;;;;;5109480;28;20186;-77
2022/11/02 01:48:41;;;;;;;6.27;1.20;;;11.80;99.90;;;;;;5091530;28;20452;-77
2022/11/02 01:51:24;;;;;;;7.90;1.70;;;11.80;99.90;;;;;;5110836;28;20449;-77
2022/11/02 01:53:51;;;;;;;6.40;1.50;;;11.80;99.90;;;;;;5091030;28;20513;-77
2022/11/02 01:56:21;;;;;;;6.30;1.63;;;11.50;99.90;;;;;;5109468;28;20480;-77
2022/11/02 01:58:52;;;;;;;2.90;1.50;;;11.70;99.90;;;;;;5091127;28;20449;-76
2022/11/02 02:01:18;;;;;;;3.80;1.50;;;11.20;99.90;;;;;;5091127;28;20486;-76
2022/11/02 02:03:46;;;;;;;7.30;1.57;;;11.10;99.90;;;;;;5112009;28;20462;-76
2022/11/02 02:06:13;;;;;;;5.03;1.77;;;11.00;99.90;;;;;;5113023;28;20268;-76
2022/11/02 02:08:43;;;;;;;6.40;1.50;;;11.00;99.90;;;;;;5113079;28;20442;-76
2022/11/02 02:11:29;;;;;;;13.37;1.63;;;10.90;99.90;;;;;;5094134;28;20418;-76
2022/11/02 02:14:00;;;;;;;8.13;1.57;;;11.00;99.90;;;;;;5094403;28;20942;-76
2022/11/02 02:16:31;;;;;;;2.97;1.37;;;10.90;99.90;;;;;;5112526;28;20421;-77
2022/11/02 02:19:00;;;;;;;9.00;1.20;;;10.80;99.90;;;;;;5113036;28;20510;-77
2022/11/02 02:22:03;;;;;;;5.50;1.63;;;10.70;99.90;;;;;;5112644;28;20476;-77
2022/11/02 02:24:52;;;;;;;1.87;1.43;;;10.70;99.90;;;;;;5112508;28;20504;-77
2022/11/02 02:27:29;;;;;;;5.20;1.30;;;10.70;99.90;;;;;;5103518;28;20459;-77
2022/11/02 02:30:05;;;;;;;8.13;2.33;;;10.70;99.90;;;;;;5095880;28;20455;-77
2022/11/02 02:32:51;;;;;;;3.60;1.30;;;10.70;99.90;;;;;;5112663;28;20426;-77
2022/11/02 02:35:34;;;;;;;5.03;1.40;;;10.70;99.90;;;;;;5112769;28;20411;-78
2022/11/02 02:38:02;;;;;;;4.87;2.23;;;10.80;99.90;;;;;;5093958;28;20479;-76
2022/11/02 02:40:42;;;;;;;8.40;1.67;;;10.70;99.90;;;;;;5112192;28;20419;-76
2022/11/02 02:43:19;;;;;;;5.90;1.40;;;10.60;99.90;;;;;;5112071;28;20461;-76
2022/11/02 02:45:54;;;;;;;4.20;1.30;;;10.60;99.90;;;;;;5111899;28;20411;-76
2022/11/02 02:48:22;;;;;;;4.50;1.27;;;10.40;99.90;;;;;;5112241;28;20876;-76
2022/11/02 02:50:49;;;;;;;8.73;1.37;;;10.20;99.90;;;;;;5111765;28;20421;-77
2022/11/02 02:53:21;;;;;;;12.67;2.40;;;10.10;99.90;;;;;;5111904;28;21083;-76
2022/11/02 02:55:49;;;;;;;5.73;1.93;;;10.30;99.90;;;;;;5077273;28;20426;-76
2022/11/02 02:58:30;;;;;;;2.70;1.00;;;10.40;99.90;;;;;;5111757;28;20441;-76
2022/11/02 03:00:58;;;;;;;6.87;1.80;;;10.50;99.90;;;;;;5111617;28;20440;-76
2022/11/02 03:03:26;;;;;;;6.10;1.50;;;10.60;99.90;;;;;;5093018;28;20518;-76
2022/11/02 03:06:04;;;;;;;6.27;1.20;;;10.50;99.90;;;;;;5111478;28;20418;-75
2022/11/02 03:08:30;;;;;;;7.07;1.63;;;10.60;99.90;;;;;;5111321;28;20428;-75
2022/11/02 03:11:10;;;;;;;4.27;1.47;;;10.80;99.90;;;;;;5111444;28;20426;-75
2022/11/02 03:13:57;;;;;;;10.90;1.87;;;11.00;99.90;;;;;;5111495;28;20453;-76
2022/11/02 03:16:26;;;;;;;4.53;1.70;;;11.00;99.90;;;;;;5111073;28;20504;-76
2022/11/02 03:19:14;;;;;;;4.50;1.47;;;10.70;99.90;;;;;;5111633;28;20486;-76
2022/11/02 03:21:43;;;;;;;5.00;1.10;;;10.70;99.90;;;;;;5111410;28;20494;-76
2022/11/02 03:24:17;;;;;;;7.73;1.70;;;10.80;99.90;;;;;;5111468;28;20825;-76
2022/11/02 03:26:43;;;;;;;4.33;1.40;;;10.80;99.90;;;;;;5111411;28;20431;-76
2022/11/02 03:29:23;;;;;;;5.20;1.13;;;10.70;99.90;;;;;;5092726;28;20460;-76
2022/11/02 03:32:07;;;;;;;7.23;1.17;;;10.70;99.90;;;;;;5092792;28;20183;-76
2022/11/02 03:34:43;;;;;;;7.20;1.50;;;10.60;99.90;;;;;;5111362;28;20452;-76
2022/11/02 03:37:30;;;;;;;4.70;1.37;;;10.60;99.90;;;;;;5111265;28;20445;-76
2022/11/02 03:40:07;;;;;;;4.50;0.97;;;10.40;99.90;;;;;;5111064;28;20440;-76
2022/11/02 03:42:34;;;;;;;7.13;1.53;;;10.40;99.90;;;;;;5111006;28;20492;-76
2022/11/02 03:45:34;;;;;;;6.67;1.27;;;10.50;99.90;;;;;;5075718;28;20465;-76
2022/11/02 03:48:03;;;;;;;7.10;1.47;;;10.50;99.90;;;;;;5099557;28;20435;-76
2022/11/02 03:50:29;;;;;;;5.97;1.20;;;10.60;99.90;;;;;;5092430;28;20907;-77
2022/11/02 03:53:10;;;;;;;7.33;1.13;;;10.70;99.90;;;;;;5110895;28;20409;-76
2022/11/02 03:55:41;;;;;;;10.33;2.13;;;10.70;99.90;;;;;;5112677;28;20450;-77
2022/11/02 03:58:10;;;;;;;5.77;1.33;;;10.90;99.90;;;;;;5092354;28;20500;-77
2022/11/02 04:00:43;;;;;;;6.40;1.40;;;10.90;99.90;;;;;;5110898;28;20417;-77
2022/11/02 04:03:11;;;;;;;8.80;1.27;;;10.80;99.90;;;;;;5092478;28;20468;-76
2022/11/02 04:05:36;;;;;;;6.10;1.30;;;10.70;99.90;;;;;;5110775;28;20421;-76
2022/11/02 04:08:21;;;;;;;4.77;1.60;;;10.60;99.90;;;;;;5092160;28;20433;-76
2022/11/02 04:16:18;;;;;;;13.90;1.60;;;10.80;99.90;;;;;;5110782;28;20787;-77
2022/11/02 04:21:28;;;;;;;14.47;1.97;;;10.90;99.90;;;;;;5110376;28;20397;-75
2022/11/02 04:26:38;;;;;;;7.37;1.50;;;11.00;99.90;;;;;;5110150;28;20421;-75
2022/11/02 04:29:04;;;;;;;10.40;0.90;;;11.10;99.90;;;;;;5091689;28;20423;-75
2022/11/02 04:31:30;;;;;;;6.27;1.47;;;11.20;99.90;;;;;;5091665;28;20181;-75
2022/11/02 04:33:58;;;;;;;6.50;1.57;;;11.30;99.90;;;;;;5110325;28;20668;-75
2022/11/02 04:36:24;;;;;;;6.33;2.33;;;11.30;99.90;;;;;;5109990;28;20783;-75
2022/11/02 04:38:50;;;;;;;3.43;1.37;;;11.30;99.90;;;;;;5109788;28;20495;-75
2022/11/02 04:44:05;;;;;;;4.50;1.00;;;11.30;99.90;;;;;;5110118;28;20208;-76
2022/11/02 04:46:33;;;;;;;4.13;1.40;;;11.20;99.90;;;;;;5110178;28;20418;-78
2022/11/02 04:48:59;;;;;;;2.30;1.10;;;11.10;99.90;;;;;;5109987;28;20516;-78
2022/11/02 04:51:26;;;;;;;7.63;1.17;;;11.00;99.90;;;;;;5091229;28;20419;-77
2022/11/02 04:53:54;;;;;;;6.87;1.23;;;10.90;99.90;;;;;;5090930;28;20236;-75
2022/11/02 04:56:19;;;;;;;10.07;1.97;;;10.90;99.90;;;;;;5109296;28;20508;-77
2022/11/02 04:58:56;;;;;;;6.23;1.43;;;10.80;99.90;;;;;;5109428;28;20516;-75
2022/11/02 05:01:24;;;;;;;2.50;1.03;;;10.70;99.90;;;;;;5109332;28;20276;-76
2022/11/02 05:03:51;;;;;;;2.53;1.20;;;10.60;99.90;;;;;;5109801;28;20469;-76
2022/11/02 05:06:19;;;;;;;6.50;1.30;;;10.50;99.90;;;;;;5109975;28;20415;-77
2022/11/02 05:08:45;;;;;;;4.67;1.10;;;10.40;99.90;;;;;;5091439;28;20425;-76
2022/11/02 05:11:11;;;;;;;4.33;1.40;;;10.30;99.90;;;;;;5109967;28;20466;-76
2022/11/02 05:13:38;;;;;;;274.83;127.67;;;10.40;99.90;;;;;;5110293;28;20191;-78
2022/11/02 05:16:04;;;;;;;12.17;4.17;;;10.20;99.90;;;;;;5110165;28;20424;-77
2022/11/02 05:18:30;;;;;;;11.23;4.43;;;10.40;99.90;;;;;;5109987;28;20484;-77
2022/11/02 05:20:58;;;;;;;5.90;2.10;;;10.50;99.90;;;;;;5091662;28;20478;-78
2022/11/02 05:23:25;;;;;;;5.70;1.63;;;10.50;99.90;;;;;;5091861;28;21026;-78
2022/11/02 05:25:59;;;;;;;6.50;1.20;;;10.50;99.90;;;;;;5091491;28;20414;-79
2022/11/02 05:28:26;;;;;;;5.50;1.37;;;10.50;99.90;;;;;;5092116;28;20529;-79
2022/11/02 05:30:52;;;;;;;4.50;1.20;;;10.50;99.90;;;;;;5092404;28;20487;-79
2022/11/02 05:33:18;;;;;;;6.10;1.40;;;10.40;99.90;;;;;;5091943;28;20435;-79
2022/11/02 05:35:44;;;;;;;3.60;1.13;;;10.60;99.90;;;;;;5110420;28;20412;-79
2022/11/02 05:38:10;;;;;;;7.30;1.20;;;10.60;99.90;;;;;;5111383;28;20797;-79
2022/11/02 05:40:36;;;;;;;1.93;0.97;;;10.50;99.90;;;;;;5062259;28;20191;-79
2022/11/02 05:43:03;;;;;;;5.20;1.07;;;10.70;99.90;;;;;;5079548;28;20181;-79
2022/11/02 05:45:29;;;;;;;5.73;1.33;;;10.60;99.90;;;;;;5095526;28;20491;-79
2022/11/02 05:47:55;;;;;;;4.20;1.00;;;10.50;99.90;;;;;;5094964;28;20570;-79
2022/11/02 05:50:20;;;;;;;3.67;1.60;;;10.50;99.90;;;;;;5095068;28;20232;-78
2022/11/02 05:52:46;;;;;;;3.80;1.30;;;10.50;99.90;;;;;;5095258;28;20181;-79
2022/11/02 05:55:13;;;;;;;4.40;1.63;;;10.40;99.90;;;;;;5077926;28;20276;-79
2022/11/02 05:57:38;;;;;;;4.43;1.37;;;10.50;99.90;;;;;;5094860;28;20439;-79
2022/11/02 06:00:06;;;;;;;6.03;1.67;;;10.50;99.90;;;;;;5095756;28;20464;-80
2022/11/02 06:02:33;;;;;;;8.63;1.30;;;10.60;99.90;;;;;;5095375;28;20445;-78
2022/11/02 06:04:58;;;;;;;4.77;1.40;;;10.60;99.90;;;;;;5095984;28;20471;-79
2022/11/02 06:07:24;;;;;;;3.00;1.23;;;10.80;99.90;;;;;;5095427;28;20446;-79
2022/11/02 06:09:50;;;;;;;2.60;1.40;;;10.80;99.90;;;;;;5078248;28;20186;-79
2022/11/02 06:12:15;;;;;;;9.50;1.60;;;10.80;99.90;;;;;;5112738;28;20180;-78
2022/11/02 06:14:41;;;;;;;2.10;1.23;;;10.80;99.90;;;;;;5112959;28;20187;-79
2022/11/02 06:17:07;;;;;;;3.40;1.20;;;10.90;99.90;;;;;;5079310;28;20209;-78
2022/11/02 06:19:32;;;;;;;3.80;1.23;;;11.10;99.90;;;;;;5113904;28;20187;-78
2022/11/02 06:21:58;;;;;;;13.00;1.53;;;11.30;99.90;;;;;;5113510;28;20743;-79
2022/11/02 06:24:23;;;;;;;5.23;1.20;;;11.40;99.90;;;;;;5113793;28;20208;-78
2022/11/02 06:26:49;;;;;;;4.23;1.47;;;11.20;99.90;;;;;;5095645;28;20615;-78
2022/11/02 06:29:15;;;;;;;8.37;1.20;;;11.30;99.90;;;;;;5113266;28;20188;-77
2022/11/02 06:31:40;;;;;;;3.80;0.90;;;11.30;99.90;;;;;;5114710;28;20188;-80
2022/11/02 06:34:06;;;;;;;3.63;1.13;;;11.20;99.90;;;;;;5115485;28;20179;-77
2022/11/02 06:36:32;;;;;;;5.53;1.10;;;11.20;99.90;;;;;;5096178;28;20234;-77
2022/11/02 06:38:57;;;;;;;17.33;1.40;;;11.20;99.90;;;;;;5080542;28;20571;-80
2022/11/02 06:41:23;;;;;;;7.07;1.40;;;11.40;99.90;;;;;;5114578;28;20614;-78
2022/11/02 06:43:48;;;;;;;9.43;1.83;;;11.50;99.90;;;;;;5114335;28;20212;-78
2022/11/02 06:46:14;;;;;;;5.43;1.37;;;11.30;99.90;;;;;;5115194;28;20206;-78
2022/11/02 06:48:40;;;;;;;8.93;2.47;;;11.70;99.90;;;;;;5078968;28;20211;-77
2022/11/02 06:51:06;;;;;;;5.37;2.47;;;11.80;99.90;;;;;;5078463;28;20283;-78
2022/11/02 06:53:32;;;;;;;5.50;2.03;;;11.80;99.90;;;;;;5078370;28;20191;-79
2022/11/02 06:55:58;;;;;;;10.97;2.30;;;11.70;99.90;;;;;;5114529;28;20484;-78
2022/11/02 06:58:25;;;;;;;7.60;1.20;;;11.90;99.90;;;;;;5112078;28;20865;-77
2022/11/02 07:00:59;;;;;;;7.50;1.60;;;12.10;99.90;;;;;;5076968;28;20418;-78
2022/11/02 07:03:26;;;;;;;5.47;1.00;;;12.20;99.90;;;;;;5094886;28;20481;-78
2022/11/02 07:05:52;;;;;;;7.40;1.17;;;12.30;99.90;;;;;;5093696;28;20427;-79
2022/11/02 07:08:19;;;;;;;5.00;1.40;;;12.30;99.90;;;;;;5093306;28;20453;-79
2022/11/02 07:10:45;;;;;;;6.27;1.20;;;12.30;99.90;;;;;;5093288;28;20424;-79
2022/11/02 07:13:11;;;;;;;10.67;1.77;;;12.40;99.90;;;;;;5111312;28;20831;-78
2022/11/02 07:15:37;;;;;;;13.17;1.80;;;12.50;99.90;;;;;;5077358;28;20483;-78
2022/11/02 07:18:02;;;;;;;8.30;1.60;;;12.50;99.90;;;;;;5111676;28;20703;-78
2022/11/02 07:20:29;;;;;;;12.90;1.50;;;12.60;99.90;;;;;;5092663;28;20267;-78
2022/11/02 07:22:56;;;;;;;10.20;1.20;;;12.60;99.90;;;;;;5111844;28;20184;-79
2022/11/02 07:25:23;;;;;;;9.83;1.73;;;12.70;99.90;;;;;;5075923;28;20477;-78
2022/11/02 07:27:49;;;;;;;7.77;1.90;;;12.70;99.90;;;;;;5112541;28;20501;-79
2022/11/02 07:30:14;;;;;;;12.47;2.10;;;12.90;99.90;;;;;;5075895;28;20543;-78
2022/11/02 07:32:41;;;;;;;5.70;1.30;;;12.90;99.90;;;;;;5110600;28;20180;-77
2022/11/02 07:35:10;;;;;;;6.07;1.40;;;13.00;99.90;;;;;;5075213;28;20420;-78
2022/11/02 07:37:35;;;;;;;6.77;1.70;;;13.00;99.90;;;;;;5091659;28;20482;-79
2022/11/02 07:40:02;;;;;;;4.37;1.80;;;13.10;99.90;;;;;;5092153;28;20485;-79
2022/11/02 07:42:27;;;;;;;8.37;1.27;;;13.10;99.90;;;;;;5092181;28;20189;-78
2022/11/02 07:44:53;;;;;;;7.13;1.83;;;13.20;99.90;;;;;;5091876;28;20980;-77
2022/11/02 07:47:18;;;;;;;6.73;1.60;;;13.30;99.90;;;;;;5074787;28;20206;-78
2022/11/02 07:49:44;;;;;;;10.20;1.37;;;13.40;99.90;;;;;;5110196;28;20185;-79
2022/11/02 07:52:10;;;;;;;6.63;1.53;;;13.50;99.90;;;;;;5109928;28;20185;-79
2022/11/02 07:54:35;;;;;;;9.77;1.87;;;13.50;99.90;;;;;;5110125;28;20187;-78
2022/11/02 07:57:01;;;;;;;6.30;1.67;;;13.50;99.90;;;;;;5091309;28;20869;-78
2022/11/02 07:59:26;;;;;;;9.40;1.97;;;13.50;99.90;;;;;;5091403;28;20197;-79
2022/11/02 08:01:52;;;;;;;9.13;1.60;;;13.50;99.90;;;;;;5090412;28;20216;-79
2022/11/02 08:04:18;;;;;;;12.20;1.13;;;13.60;99.90;;;;;;5074331;28;20649;-78
2022/11/02 08:06:43;;;;;;;12.30;2.27;;;13.50;99.90;;;;;;5074461;28;20729;-79
2022/11/02 08:09:09;;;;;;;8.47;1.80;;;13.60;99.90;;;;;;5109686;28;20178;-78
2022/11/02 08:11:35;;;;;;;7.20;1.67;;;13.60;99.90;;;;;;5074933;28;20736;-78
2022/11/02 08:14:01;;;;;;;8.27;2.53;;;13.50;99.90;;;;;;5093378;28;20184;-78
2022/11/02 08:16:28;;;;;;;3.60;1.37;;;13.60;99.90;;;;;;5076197;28;20670;-79
2022/11/02 08:18:54;;;;;;;9.00;2.10;;;13.60;99.90;;;;;;5110852;28;20453;-79
2022/11/02 08:21:19;;;;;;;8.67;1.30;;;13.50;99.90;;;;;;5092757;28;20485;-78
2022/11/02 08:23:45;;;;;;;4.90;1.60;;;13.50;99.90;;;;;;5110726;28;20200;-78
2022/11/02 08:26:11;;;;;;;6.50;1.63;;;13.50;99.90;;;;;;5092627;28;20177;-78
2022/11/02 08:28:39;;;;;;;6.40;1.40;;;13.60;99.90;;;;;;5111278;28;20203;-78
2022/11/02 08:31:06;;;;;;;7.67;1.50;;;13.50;99.90;;;;;;5111583;28;20310;-78
2022/11/02 08:33:32;;;;;;;14.60;1.87;;;13.50;99.90;;;;;;5111246;28;20419;-79
2022/11/02 08:36:05;;;;;;;12.10;1.90;;;13.40;99.90;;;;;;5110626;28;20842;-78
2022/11/02 08:38:31;;;;;;;5.47;1.47;;;13.50;99.90;;;;;;5110073;28;20431;-79
2022/11/02 08:40:57;;;;;;;10.00;1.93;;;13.70;99.90;;;;;;5092187;28;20442;-78
2022/11/02 08:43:22;;;;;;;7.93;1.90;;;13.90;99.90;;;;;;5075231;28;20463;-78
2022/11/02 08:45:49;;;;;;;9.03;2.40;;;14.00;99.90;;;;;;5091964;28;20185;-79
2022/11/02 08:48:14;;;;;;;16.20;2.80;;;13.90;99.90;;;;;;5109831;28;20217;-78
2022/11/02 08:50:40;;;;;;;10.93;2.13;;;13.80;99.90;;;;;;5091333;28;20912;-78
2022/11/02 08:53:06;;;;;;;2.90;1.70;;;13.70;99.90;;;;;;5092246;28;20273;-79
2022/11/02 08:55:32;;;;;;;7.43;2.10;;;13.60;99.90;;;;;;5091527;28;20183;-79
2022/11/02 08:57:59;;;;;;;3.10;1.50;;;13.60;99.90;;;;;;5110378;28;20962;-77
2022/11/02 09:00:27;;;;;;;4.70;1.70;;;13.60;99.90;;;;;;5110488;28;20429;-78
2022/11/02 09:03:12;;;;;;;11.97;1.87;;;13.70;99.90;;;;;;5109803;28;20541;-79
2022/11/02 09:05:42;;;;;;;8.03;1.90;;;13.70;99.90;;;;;;5109689;28;20943;-78
2022/11/02 09:08:17;;;;;;;5.00;1.70;;;13.70;99.90;;;;;;5074720;28;20551;-79
2022/11/02 09:10:45;;;;;;;8.03;2.20;;;13.70;99.90;;;;;;5110333;28;20436;-79
2022/11/02 09:13:12;;;;;;;11.07;2.00;;;13.70;99.90;;;;;;5094633;28;20947;-79
2022/11/02 09:15:38;;;;;;;9.70;2.10;;;13.80;99.90;;;;;;5079288;28;20444;-78
2022/11/02 09:18:08;;;;;;;4.03;1.40;;;13.80;99.90;;;;;;5079471;28;20791;-79
2022/11/02 09:20:34;;;;;;;5.87;1.83;;;14.00;99.90;;;;;;5114350;28;20408;-78
2022/11/02 09:23:00;;;;;;;7.83;1.93;;;14.00;99.90;;;;;;5095767;28;20411;-79
2022/11/02 09:25:26;;;;;;;4.77;1.40;;;14.10;99.90;;;;;;5078977;28;20426;-78
2022/11/02 09:27:53;;;;;;;6.97;2.57;;;14.10;99.90;;;;;;5095457;28;20201;-79
2022/11/02 09:30:19;;;;;;;4.13;1.37;;;14.30;99.90;;;;;;5095545;28;20528;-78
2022/11/02 09:32:56;;;;;;;8.67;2.17;;;14.30;99.90;;;;;;5113975;28;20938;-78
2022/11/02 09:35:22;;;;;;;8.30;1.60;;;14.30;99.90;;;;;;5095213;28;20419;-77
2022/11/02 09:37:47;;;;;;;4.13;1.60;;;14.60;99.90;;;;;;5095240;28;20527;-78
2022/11/02 09:40:19;;;;;;;11.40;1.73;;;15.00;99.90;;;;;;5079048;28;20514;-77
2022/11/02 09:43:07;;;;;;;9.40;1.70;;;15.50;99.90;;;;;;5079442;28;20298;-79
2022/11/02 09:45:52;;;;;;;7.80;2.07;;;16.20;99.90;;;;;;5112983;28;20423;-78
2022/11/02 09:48:34;;;;;;;10.80;1.83;;;16.50;99.90;;;;;;5112936;28;20500;-78
2022/11/02 09:51:06;;;;;;;6.20;1.53;;;16.50;99.90;;;;;;5095409;28;20412;-79
2022/11/02 09:53:40;;;;;;;8.17;1.80;;;17.00;99.90;;;;;;5095736;28;20416;-79
2022/11/02 09:56:07;;;;;;;11.37;1.70;;;16.80;99.90;;;;;;5095449;28;20418;-78
2022/11/02 09:58:39;;;;;;;5.33;1.27;;;17.00;99.90;;;;;;5095699;28;20444;-78
2022/11/02 10:01:31;;;;;;;11.17;1.60;;;16.70;99.90;;;;;;5095793;28;20428;-79
2022/11/02 10:04:43;;;;;;;5.50;2.00;;;16.60;99.90;;;;;;5113901;28;21003;-78
2022/11/02 10:07:13;;;;;;;5.77;1.53;;;16.30;99.90;;;;;;5065764;28;20785;-79
2022/11/02 10:09:51;;;;;;;8.87;1.73;;;16.00;99.90;;;;;;5113443;28;20421;-78
2022/11/02 10:12:28;;;;;;;6.90;1.50;;;16.00;99.90;;;;;;5113605;28;20408;-78
2022/11/02 10:15:08;;;;;;;8.33;2.20;;;15.70;99.90;;;;;;5095161;28;20945;-78
2022/11/02 10:17:37;;;;;;;6.97;1.97;;;15.70;99.90;;;;;;5094914;28;20459;-78
2022/11/02 10:20:09;;;;;;;3.77;1.40;;;15.60;99.90;;;;;;5113872;28;20413;-78
2022/11/02 10:22:41;;;;;;;6.53;1.63;;;15.70;99.90;;;;;;5095899;28;20469;-79
2022/11/02 10:25:10;;;;;;;8.87;1.30;;;15.90;99.90;;;;;;5094814;28;20555;-79
2022/11/02 10:27:38;;;;;;;8.70;1.70;;;15.80;99.90;;;;;;5095079;28;20440;-78
2022/11/02 10:30:14;;;;;;;7.17;1.30;;;15.80;99.90;;;;;;5094618;28;20511;-78
2022/11/02 10:32:41;;;;;;;10.73;2.57;;;15.70;99.90;;;;;;5095059;28;20425;-78
2022/11/02 10:35:41;;;;;;;3.90;1.40;;;15.60;99.90;;;;;;5095088;28;20429;-78
2022/11/02 10:38:18;;;;;;;11.20;1.47;;;15.60;99.90;;;;;;5113344;28;20456;-78
2022/11/02 10:40:49;;;;;;;7.53;1.23;;;15.60;99.90;;;;;;5095295;28;20514;-80
2022/11/02 10:43:21;;;;;;;8.67;1.37;;;15.60;99.90;;;;;;5094890;28;20516;-79
2022/11/02 10:45:52;;;;;;;7.83;1.60;;;15.80;99.90;;;;;;5112589;28;20504;-78
2022/11/02 10:48:51;;;;;;;12.80;1.80;;;15.80;99.90;;;;;;5094125;28;20833;-77
2022/11/02 10:51:18;;;;;;;2.77;1.23;;;16.00;99.90;;;;;;5094342;28;20542;-79
2022/11/02 10:53:46;;;;;;;8.87;1.30;;;15.80;99.90;;;;;;5093773;28;20441;-78
2022/11/02 10:56:11;;;;;;;4.70;1.50;;;15.80;99.90;;;;;;5094537;28;20492;-78
2022/11/02 10:58:42;;;;;;;8.47;1.80;;;15.70;99.90;;;;;;5112031;28;20473;-78
2022/11/02 11:01:10;;;;;;;4.47;1.57;;;15.70;99.90;;;;;;5093893;28;20198;-80
2022/11/02 11:04:05;;;;;;;4.80;1.27;;;15.80;99.90;;;;;;5094060;28;20469;-78
2022/11/02 11:06:36;;;;;;;4.00;1.30;;;15.80;99.90;;;;;;5094424;28;20416;-78
2022/11/02 11:09:20;;;;;;;5.07;2.00;;;15.90;99.90;;;;;;5112895;28;20816;-79
2022/11/02 11:12:12;;;;;;;8.10;1.53;;;16.00;99.90;;;;;;5077637;28;20897;-78
2022/11/02 11:14:56;;;;;;;7.00;1.70;;;16.20;99.90;;;;;;5093951;28;20414;-77
2022/11/02 11:17:42;;;;;;;12.73;1.97;;;15.90;99.90;;;;;;5112831;28;20463;-78
2022/11/02 11:20:30;;;;;;;7.33;1.80;;;15.70;99.90;;;;;;5077563;28;20807;-79
2022/11/02 11:23:14;;;;;;;5.30;1.50;;;15.90;99.90;;;;;;5094855;28;20416;-79
2022/11/02 11:25:40;;;;;;;5.30;1.20;;;15.90;99.90;;;;;;5111853;28;20520;-79
2022/11/02 11:28:26;;;;;;;5.90;1.43;;;16.00;99.90;;;;;;5111771;28;20432;-80
2022/11/02 11:31:21;;;;;;;9.87;1.27;;;16.00;99.90;;;;;;5093416;28;20417;-79
2022/11/02 11:33:55;;;;;;;4.30;1.30;;;16.10;99.90;;;;;;5063502;28;20418;-78
2022/11/02 11:36:32;;;;;;;4.23;1.07;;;16.10;99.90;;;;;;5092152;28;20522;-77
2022/11/02 11:39:05;;;;;;;4.97;1.23;;;16.10;99.90;;;;;;5092834;28;20428;-78
2022/11/02 11:41:33;;;;;;;4.13;1.20;;;16.00;99.90;;;;;;5093028;28;20424;-78
2022/11/02 11:44:00;;;;;;;4.90;1.33;;;16.00;99.90;;;;;;5093573;28;20466;-79
2022/11/02 11:46:43;;;;;;;9.03;1.50;;;15.90;99.90;;;;;;5111562;28;20964;-78
2022/11/02 11:49:21;;;;;;;11.43;1.63;;;15.80;99.90;;;;;;5076125;28;20421;-79
2022/11/02 11:51:52;;;;;;;3.23;1.20;;;15.70;99.90;;;;;;5093257;28;20500;-79
2022/11/02 11:54:28;;;;;;;5.90;1.37;;;15.90;99.90;;;;;;5093002;28;20506;-79
2022/11/02 11:57:15;;;;;;;8.07;1.27;;;15.60;99.90;;;;;;5093649;28;20520;-79
2022/11/02 11:59:50;;;;;;;6.70;1.33;;;15.80;99.90;;;;;;5111229;28;20924;-78
2022/11/02 12:02:28;;;;;;;8.57;1.40;;;15.80;99.90;;;;;;5110528;28;20459;-78
2022/11/02 12:05:16;;;;;;;2.93;1.07;;;15.80;99.90;;;;;;5093329;28;20881;-77
2022/11/02 12:07:44;;;;;;;2.60;1.30;;;15.70;99.90;;;;;;5111020;28;20502;-77
2022/11/02 12:10:27;;;;;;;3.43;0.97;;;15.70;99.90;;;;;;5111101;28;20417;-79
2022/11/02 12:13:16;;;;;;;5.63;1.37;;;15.60;99.90;;;;;;5092382;28;20471;-79
2022/11/02 12:16:03;;;;;;;5.00;1.20;;;15.60;99.90;;;;;;5110321;28;20416;-78
2022/11/02 12:18:57;;;;;;;6.00;1.37;;;15.60;99.90;;;;;;5091717;28;20451;-77
2022/11/02 12:21:40;;;;;;;4.27;1.33;;;15.70;99.90;;;;;;5110257;28;20575;-79
2022/11/02 12:24:53;;;;;;;3.60;1.37;;;15.90;99.90;;;;;;5091082;28;21059;-77
2022/11/02 12:27:22;;;;;;;4.70;1.40;;;16.40;99.90;;;;;;5037548;28;20681;-79
2022/11/02 12:29:53;;;;;;;13.00;1.90;;;16.40;99.90;;;;;;5094266;28;20425;-78
2022/11/02 12:32:34;;;;;;;6.43;1.60;;;17.20;99.90;;;;;;5099559;28;20419;-77
2022/11/02 12:35:37;;;;;;;10.90;1.47;;;17.70;97.40;;;;;;5117897;28;20426;-77
2022/11/02 12:38:33;;;;;;;4.60;1.33;;;17.70;98.50;;;;;;5135599;27;20426;-77
2022/11/02 12:41:02;;;;;;;2.50;1.23;;;17.80;96.60;;;;;;5135326;27;20468;-78
2022/11/02 12:43:36;;;;;;;5.17;1.37;;;17.60;95.70;;;;;;5097013;28;20479;-79
2022/11/02 12:46:29;;;;;;;4.97;0.97;;;17.30;94.90;;;;;;5111371;28;20425;-78
2022/11/02 12:49:13;;;;;;;7.90;1.10;;;17.20;95.50;;;;;;5111455;28;20982;-77
2022/11/02 12:51:50;;;;;;;6.67;1.60;;;17.30;95.80;;;;;;5110934;28;20411;-78
2022/11/02 12:54:20;;;;;;;8.37;1.90;;;17.10;95.50;;;;;;5092322;28;20862;-78
2022/11/02 12:56:49;;;;;;;5.47;1.50;;;17.10;95.60;;;;;;5110097;28;20453;-78
2022/11/02 12:59:26;;;;;;;9.73;1.90;;;17.00;96.10;;;;;;5091742;28;20506;-79
2022/11/02 13:02:02;;;;;;;9.60;1.50;;;17.10;96.00;;;;;;5091600;28;20490;-79
2022/11/02 13:04:34;;;;;;;6.80;2.03;;;17.10;95.30;;;;;;5111014;28;20474;-79
2022/11/02 13:07:17;;;;;;;8.43;1.40;;;16.90;96.70;;;;;;5091455;28;20472;-78
2022/11/02 13:10:13;;;;;;;8.83;1.70;;;16.90;96.20;;;;;;5091570;28;20438;-78
2022/11/02 13:12:41;;;;;;;4.07;1.50;;;16.90;97.00;;;;;;5091735;28;20523;-78
2022/11/02 13:15:14;;;;;;;2.33;1.10;;;16.90;96.40;;;;;;5091932;28;20944;-79
2022/11/02 13:17:49;;;;;;;4.73;1.83;;;17.00;96.60;;;;;;5091241;28;20975;-77
2022/11/02 13:20:34;;;;;;;8.73;1.60;;;17.10;97.20;;;;;;5091842;28;20746;-78